createdAt,value
2019-03-01T00:01:20.033Z,53.03
2019-03-01T00:03:54.207Z,52.87
2019-03-01T00:06:34.770Z,54.20
2019-03-01T00:09:58.239Z,53.27
2019-03-01T00:13:49.350Z,53.07
2019-03-01T00:17:08.911Z,54.13
2019-03-01T00:20:17.034Z,52.80
2019-03-01T00:23:40.721Z,53.07
2019-03-01T00:27:07.753Z,51.57
2019-03-01T00:30:30.269Z,55.57
2019-03-01T00:33:26.935Z,53.93
2019-03-01T00:36:55.632Z,53.97
2019-03-01T00:39:58.337Z,54.00
2019-03-01T00:43:40.888Z,54.90
2019-03-01T00:46:08.978Z,54.83
2019-03-01T00:48:37.030Z,56.30
2019-03-01T00:51:05.329Z,54.80
2019-03-01T00:53:34.250Z,53.47
2019-03-01T00:56:02.351Z,54.67
2019-03-01T00:58:30.990Z,54.00
2019-03-01T01:00:59.041Z,54.73
2019-03-01T01:03:27.235Z,54.80
2019-03-01T01:05:55.409Z,52.40
2019-03-01T01:08:23.488Z,52.10
2019-03-01T01:10:51.630Z,52.13
2019-03-01T01:13:20.050Z,53.20
2019-03-01T01:15:49.934Z,51.60
2019-03-01T01:18:18.201Z,53.67
2019-03-01T01:20:46.588Z,51.53
2019-03-01T01:23:14.736Z,52.73
2019-03-01T01:25:42.839Z,54.33
2019-03-01T01:28:10.904Z,55.17
2019-03-01T01:30:39.099Z,52.80
2019-03-01T01:33:07.440Z,55.07
2019-03-01T01:35:35.606Z,55.80
2019-03-01T01:38:04.077Z,52.13
2019-03-01T01:40:32.154Z,53.63
2019-03-01T01:43:00.267Z,54.50
2019-03-01T01:45:28.817Z,52.07
2019-03-01T01:47:56.922Z,52.47
2019-03-01T01:50:25.117Z,53.87
2019-03-01T01:52:53.288Z,52.87
2019-03-01T01:55:21.473Z,53.53
2019-03-01T01:57:49.943Z,54.03
2019-03-01T02:00:18.367Z,54.70
2019-03-01T02:02:46.444Z,54.27
2019-03-01T02:05:14.723Z,55.07
2019-03-01T02:07:42.896Z,52.70
2019-03-01T02:10:11.301Z,54.73
2019-03-01T02:12:39.390Z,51.67
2019-03-01T02:15:10.021Z,53.17
2019-03-01T02:17:38.449Z,54.30
2019-03-01T02:20:08.104Z,53.73
2019-03-01T02:22:36.334Z,53.57
2019-03-01T02:25:05.691Z,55.50
2019-03-01T02:27:34.176Z,54.80
2019-03-01T02:30:05.502Z,57.33
2019-03-01T02:32:49.610Z,56.47
2019-03-01T02:35:27.911Z,56.10
2019-03-01T02:37:56.300Z,54.03
2019-03-01T02:40:24.397Z,56.40
2019-03-01T02:42:52.737Z,54.27
2019-03-01T02:45:21.685Z,54.10
2019-03-01T02:47:50.149Z,54.73
2019-03-01T02:50:18.922Z,53.77
2019-03-01T02:52:47.237Z,54.37
2019-03-01T02:55:16.534Z,55.17
2019-03-01T02:57:44.583Z,55.43
2019-03-01T03:00:22.007Z,53.60
2019-03-01T03:02:50.075Z,55.07
2019-03-01T03:05:18.316Z,55.53
2019-03-01T03:07:48.869Z,55.43
2019-03-01T03:10:17.182Z,54.83
2019-03-01T03:12:45.710Z,53.80
2019-03-01T03:15:15.348Z,56.43
2019-03-01T03:17:43.708Z,53.13
2019-03-01T03:20:12.236Z,54.50
2019-03-01T03:22:40.324Z,52.77
2019-03-01T03:25:09.164Z,53.40
2019-03-01T03:27:37.493Z,51.47
2019-03-01T03:30:08.069Z,56.43
2019-03-01T03:32:36.167Z,53.23
2019-03-01T03:35:04.992Z,51.23
2019-03-01T03:37:33.117Z,51.60
2019-03-01T03:40:01.210Z,52.67
2019-03-01T03:42:29.454Z,53.13
2019-03-01T03:44:57.519Z,53.20
2019-03-01T03:47:25.910Z,51.30
2019-03-01T03:49:54.953Z,54.10
2019-03-01T03:52:23.018Z,54.13
2019-03-01T03:54:51.601Z,51.77
2019-03-01T03:57:19.679Z,52.13
2019-03-01T03:59:47.766Z,50.93
2019-03-01T04:02:15.953Z,53.03
2019-03-01T04:04:44.637Z,52.77
2019-03-01T04:07:13.009Z,52.23
2019-03-01T04:09:41.099Z,53.90
2019-03-01T04:12:09.493Z,52.53
2019-03-01T04:14:37.816Z,51.23
2019-03-01T04:17:06.046Z,51.53
2019-03-01T04:19:34.469Z,46.30
2019-03-01T04:22:02.988Z,49.87
2019-03-01T04:24:31.092Z,48.93
2019-03-01T04:26:59.674Z,47.80
2019-03-01T04:29:28.453Z,47.90
2019-03-01T04:31:56.983Z,49.10
2019-03-01T04:34:25.164Z,46.77
2019-03-01T04:36:53.297Z,44.70
2019-03-01T04:39:21.803Z,46.67
2019-03-01T04:41:49.974Z,43.90
2019-03-01T04:44:18.265Z,43.57
2019-03-01T04:46:46.406Z,43.57
2019-03-01T04:49:14.793Z,44.90
2019-03-01T04:51:42.967Z,44.03
2019-03-01T04:54:11.463Z,43.57
2019-03-01T04:56:39.722Z,41.87
2019-03-01T04:59:07.797Z,39.77
2019-03-01T05:01:36.155Z,40.13
2019-03-01T05:04:04.453Z,40.90
2019-03-01T05:06:32.585Z,40.50
2019-03-01T05:09:00.992Z,39.67
2019-03-01T05:11:29.184Z,39.87
2019-03-01T05:13:57.479Z,38.67
2019-03-01T05:16:25.581Z,39.03
2019-03-01T05:18:53.948Z,40.47
2019-03-01T05:21:22.155Z,41.93
2019-03-01T05:23:50.380Z,39.80
2019-03-01T05:26:18.750Z,39.90
2019-03-01T05:28:46.853Z,41.20
2019-03-01T05:31:16.497Z,40.40
2019-03-01T05:33:44.769Z,41.53
2019-03-01T05:36:12.882Z,39.97
2019-03-01T05:38:40.938Z,40.67
2019-03-01T05:41:09.127Z,41.03
2019-03-01T05:43:37.368Z,38.70
2019-03-01T05:46:05.491Z,38.13
2019-03-01T05:48:33.885Z,40.13
2019-03-01T05:51:02.090Z,39.60
2019-03-01T05:53:30.284Z,39.07
2019-03-01T05:55:58.505Z,37.73
2019-03-01T05:58:39.947Z,35.40
2019-03-01T06:01:41.705Z,34.73
2019-03-01T06:04:35.361Z,31.07
2019-03-01T06:08:13.685Z,33.37
2019-03-01T06:11:28.403Z,30.17
2019-03-01T06:14:48.574Z,29.20
2019-03-01T06:18:08.721Z,26.33
2019-03-01T06:21:30.863Z,26.30
2019-03-01T06:24:18.386Z,25.33
2019-03-01T06:27:42.753Z,24.47
2019-03-01T06:30:54.639Z,22.80
2019-03-01T06:34:19.028Z,20.53
2019-03-01T06:37:49.387Z,17.93
2019-03-01T06:41:21.544Z,19.33
2019-03-01T06:44:39.596Z,16.80
2019-03-01T06:47:39.115Z,17.70
2019-03-01T06:50:18.328Z,18.87
2019-03-01T06:52:46.474Z,17.90
2019-03-01T06:55:53.723Z,18.13
2019-03-01T06:58:43.922Z,16.53
2019-03-01T07:01:15.213Z,17.10
2019-03-01T07:03:45.268Z,17.10
2019-03-01T07:06:13.339Z,14.50
2019-03-01T07:08:41.719Z,13.60
2019-03-01T07:11:09.811Z,14.30
2019-03-01T07:13:37.886Z,15.10
2019-03-01T07:16:06.444Z,9.93
2019-03-01T07:18:34.500Z,13.93
2019-03-01T07:21:02.804Z,11.93
2019-03-01T07:23:36.695Z,11.70
2019-03-01T07:26:01.382Z,12.20
2019-03-01T07:28:30.398Z,12.40
2019-03-01T07:30:58.988Z,12.00
2019-03-01T07:33:27.541Z,12.57
2019-03-01T07:35:55.846Z,13.37
2019-03-01T07:38:23.922Z,13.67
2019-03-01T07:40:52.483Z,12.60
2019-03-01T07:43:20.694Z,14.07
2019-03-01T07:45:49.148Z,13.47
2019-03-01T07:48:17.520Z,13.67
2019-03-01T07:50:45.694Z,12.27
2019-03-01T07:53:13.783Z,12.90
2019-03-01T07:55:41.915Z,11.47
2019-03-01T07:58:10.084Z,12.07
2019-03-01T08:00:38.250Z,12.47
2019-03-01T08:03:06.466Z,10.87
2019-03-01T08:05:35.546Z,9.87
2019-03-01T08:08:04.665Z,11.23
2019-03-01T08:10:33.011Z,11.43
2019-03-01T08:13:01.090Z,11.20
2019-03-01T08:15:29.383Z,11.10
2019-03-01T08:17:57.571Z,11.73
2019-03-01T08:20:30.278Z,11.53
2019-03-01T08:22:59.820Z,11.77
2019-03-01T08:25:28.563Z,12.03
2019-03-01T08:27:56.994Z,10.90
2019-03-01T08:30:25.318Z,10.00
2019-03-01T08:32:53.425Z,9.97
2019-03-01T08:35:21.612Z,8.93
2019-03-01T08:37:53.204Z,9.43
2019-03-01T08:40:19.692Z,8.33
2019-03-01T08:42:47.838Z,7.30
2019-03-01T08:45:16.320Z,6.43
2019-03-01T08:47:44.477Z,6.17
2019-03-01T08:50:14.873Z,7.60
2019-03-01T08:52:43.244Z,7.37
2019-03-01T08:55:14.516Z,7.00
2019-03-01T08:57:44.608Z,8.30
2019-03-01T09:00:28.358Z,8.97
2019-03-01T09:02:59.710Z,9.53
2019-03-01T09:05:27.801Z,9.07
2019-03-01T09:07:56.328Z,10.80
2019-03-01T09:10:24.830Z,10.20
2019-03-01T09:12:53.815Z,10.97
2019-03-01T09:15:22.799Z,8.80
2019-03-01T09:17:51.279Z,9.00
2019-03-01T09:20:19.691Z,6.87
2019-03-01T09:22:47.830Z,9.10
2019-03-01T09:25:16.319Z,9.70
2019-03-01T09:27:44.482Z,8.10
2019-03-01T09:30:19.154Z,9.07
2019-03-01T09:32:47.374Z,8.47
2019-03-01T09:35:50.009Z,7.67
2019-03-01T09:38:19.143Z,6.87
2019-03-01T09:40:47.246Z,6.77
2019-03-01T09:43:15.819Z,6.37
2019-03-01T09:45:45.727Z,6.77
2019-03-01T09:48:14.215Z,4.97
2019-03-01T09:50:42.335Z,5.73
2019-03-01T09:53:10.440Z,6.87
2019-03-01T09:55:38.668Z,7.07
2019-03-01T09:58:08.451Z,5.80
2019-03-01T10:00:38.802Z,5.80
2019-03-01T10:03:06.884Z,6.30
2019-03-01T10:05:34.924Z,4.93
2019-03-01T10:08:03.462Z,5.03
2019-03-01T10:10:31.619Z,5.40
2019-03-01T10:12:59.776Z,4.20
2019-03-01T10:15:27.846Z,4.77
2019-03-01T10:17:55.913Z,4.53
2019-03-01T10:20:26.013Z,4.80
2019-03-01T10:22:54.018Z,2.90
2019-03-01T10:25:22.093Z,3.40
2019-03-01T10:27:50.504Z,2.97
2019-03-01T10:30:20.056Z,2.77
2019-03-01T10:32:48.212Z,2.43
2019-03-01T10:35:16.898Z,2.63
2019-03-01T10:37:44.985Z,2.13
2019-03-01T10:40:15.810Z,2.10
2019-03-01T10:42:43.904Z,1.80
2019-03-01T10:45:19.089Z,1.57
2019-03-01T10:47:47.381Z,1.97
2019-03-01T10:50:15.550Z,1.53
2019-03-01T10:52:43.643Z,1.40
2019-03-01T10:55:14.386Z,1.87
2019-03-01T10:57:42.703Z,1.97
2019-03-01T11:00:22.289Z,1.87
2019-03-01T11:02:51.468Z,2.33
2019-03-01T11:05:19.940Z,2.20
2019-03-01T11:07:49.609Z,1.93
2019-03-01T11:10:22.058Z,1.80
2019-03-01T11:12:50.113Z,2.80
2019-03-01T11:15:18.642Z,2.00
2019-03-01T11:17:46.827Z,1.67
2019-03-01T11:20:15.466Z,1.90
2019-03-01T11:22:43.818Z,1.80
2019-03-01T11:25:13.310Z,1.80
2019-03-01T11:27:41.710Z,3.20
2019-03-01T11:30:16.512Z,5.47
2019-03-01T11:32:44.588Z,4.73
2019-03-01T11:35:13.959Z,4.77
2019-03-01T11:37:42.473Z,6.90
2019-03-01T11:40:14.777Z,5.90
2019-03-01T11:42:43.010Z,3.10
2019-03-01T11:45:11.277Z,2.90
2019-03-01T11:47:39.424Z,3.17
2019-03-01T11:50:12.029Z,2.27
2019-03-01T11:52:40.287Z,3.53
2019-03-01T11:55:08.482Z,4.43
2019-03-01T11:57:36.803Z,5.70
2019-03-01T12:00:06.249Z,7.63
2019-03-01T12:02:34.320Z,7.97
2019-03-01T12:05:02.942Z,7.83
2019-03-01T12:07:31.382Z,5.87
2019-03-01T12:09:59.609Z,7.10
2019-03-01T12:12:27.672Z,10.03
2019-03-01T12:14:55.746Z,10.00
2019-03-01T12:17:24.351Z,7.83
2019-03-01T12:19:52.734Z,5.80
2019-03-01T12:22:21.027Z,4.63
2019-03-01T12:24:49.146Z,3.93
2019-03-01T12:27:17.239Z,2.80
2019-03-01T12:29:45.349Z,4.10
2019-03-01T12:32:13.482Z,4.07
2019-03-01T12:34:41.594Z,5.27
2019-03-01T12:37:10.077Z,3.57
2019-03-01T12:39:38.543Z,3.73
2019-03-01T12:42:06.838Z,4.80
2019-03-01T12:44:35.049Z,5.97
2019-03-01T12:47:03.191Z,6.57
2019-03-01T12:49:31.831Z,5.43
2019-03-01T12:52:00.258Z,7.03
2019-03-01T12:54:28.427Z,6.40
2019-03-01T12:56:56.489Z,6.60
2019-03-01T12:59:24.580Z,5.90
2019-03-01T13:01:53.144Z,6.40
2019-03-01T13:04:21.187Z,6.13
2019-03-01T13:06:49.818Z,6.53
2019-03-01T13:09:17.883Z,5.40
2019-03-01T13:11:48.634Z,6.63
2019-03-01T13:14:17.760Z,6.80
2019-03-01T13:16:45.948Z,5.30
2019-03-01T13:19:14.070Z,4.93
2019-03-01T13:21:42.195Z,4.53
2019-03-01T13:24:12.684Z,3.93
2019-03-01T13:26:41.644Z,4.83
2019-03-01T13:29:09.877Z,3.97
2019-03-01T13:31:38.303Z,4.83
2019-03-01T13:34:06.427Z,4.87
2019-03-01T13:36:36.234Z,4.33
2019-03-01T13:39:07.750Z,5.07
2019-03-01T13:41:37.209Z,4.00
2019-03-01T13:44:06.127Z,4.53
2019-03-01T13:46:34.238Z,5.90
2019-03-01T13:49:02.324Z,4.13
2019-03-01T13:51:30.477Z,2.93
2019-03-01T13:53:58.656Z,2.37
2019-03-01T13:56:27.080Z,3.77
2019-03-01T13:58:55.421Z,3.63
2019-03-01T14:01:27.045Z,4.00
2019-03-01T14:03:54.295Z,3.80
2019-03-01T14:06:22.759Z,3.93
2019-03-01T14:08:51.482Z,5.10
2019-03-01T14:11:23.277Z,5.27
2019-03-01T14:13:51.069Z,3.63
2019-03-01T14:16:21.643Z,5.73
2019-03-01T14:18:50.060Z,5.67
2019-03-01T14:21:18.604Z,5.23
2019-03-01T14:23:46.758Z,4.93
2019-03-01T14:26:18.234Z,5.17
2019-03-01T14:28:45.016Z,5.20
2019-03-01T14:31:13.508Z,5.13
2019-03-01T14:33:41.694Z,4.60
2019-03-01T14:36:10.143Z,5.57
2019-03-01T14:38:38.670Z,4.00
2019-03-01T14:41:06.758Z,3.77
2019-03-01T14:43:34.970Z,3.87
2019-03-01T14:46:03.935Z,2.40
2019-03-01T14:48:32.065Z,3.30
2019-03-01T14:51:00.237Z,4.63
2019-03-01T14:53:31.140Z,4.23
2019-03-01T14:56:09.002Z,4.27
2019-03-01T14:58:48.077Z,4.60
2019-03-01T15:01:39.298Z,4.23
2019-03-01T15:04:07.431Z,3.33
2019-03-01T15:06:37.193Z,3.13
2019-03-01T15:09:08.142Z,2.20
2019-03-01T15:11:36.539Z,3.60
2019-03-01T15:14:04.909Z,3.00
2019-03-01T15:16:33.298Z,3.23
2019-03-01T15:19:04.758Z,3.93
2019-03-01T15:21:34.108Z,3.30
2019-03-01T15:24:02.280Z,3.53
2019-03-01T15:26:30.351Z,2.93
2019-03-01T15:28:59.064Z,2.80
2019-03-01T15:31:27.445Z,3.43
2019-03-01T15:33:55.876Z,2.83
2019-03-01T15:36:23.928Z,2.83
2019-03-01T15:38:52.728Z,2.87
2019-03-01T15:41:21.240Z,2.37
2019-03-01T15:43:49.470Z,2.87
2019-03-01T15:46:18.040Z,3.33
2019-03-01T15:48:46.729Z,3.50
2019-03-01T15:51:14.867Z,2.93
2019-03-01T15:53:42.982Z,3.17
2019-03-01T15:56:11.040Z,3.33
2019-03-01T15:58:39.274Z,3.67
2019-03-01T16:01:11.868Z,4.97
2019-03-01T16:03:40.217Z,4.33
2019-03-01T16:06:10.565Z,4.23
2019-03-01T16:08:38.805Z,4.07
2019-03-01T16:11:09.208Z,2.83
2019-03-01T16:13:37.045Z,4.83
2019-03-01T16:16:05.132Z,3.43
2019-03-01T16:18:35.361Z,3.23
2019-03-01T16:21:05.260Z,3.27
2019-03-01T16:23:34.442Z,3.27
2019-03-01T16:26:02.546Z,3.47
2019-03-01T16:28:31.202Z,2.70
2019-03-01T16:31:00.579Z,3.00
2019-03-01T16:33:29.977Z,3.33
2019-03-01T16:35:58.309Z,3.80
2019-03-01T16:38:26.435Z,4.67
2019-03-01T16:40:54.526Z,4.13
2019-03-01T16:43:25.384Z,3.70
2019-03-01T16:45:53.311Z,4.00
2019-03-01T16:48:22.782Z,3.93
2019-03-01T16:50:51.205Z,4.13
2019-03-01T16:53:19.632Z,3.97
2019-03-01T16:55:49.253Z,4.33
2019-03-01T16:58:17.638Z,4.10
2019-03-01T17:00:45.848Z,3.53
2019-03-01T17:03:17.910Z,2.73
2019-03-01T17:05:44.166Z,3.43
2019-03-01T17:08:12.231Z,3.13
2019-03-01T17:10:40.919Z,2.80
2019-03-01T17:13:09.101Z,3.50
2019-03-01T17:15:37.389Z,3.73
2019-03-01T17:18:11.326Z,4.20
2019-03-01T17:20:38.579Z,3.87
2019-03-01T17:23:07.219Z,5.43
2019-03-01T17:25:36.462Z,4.20
2019-03-01T17:28:04.879Z,3.70
2019-03-01T17:30:33.333Z,3.43
2019-03-01T17:33:01.435Z,3.73
2019-03-01T17:35:29.903Z,2.93
2019-03-01T17:37:58.066Z,3.23
2019-03-01T17:40:29.414Z,3.30
2019-03-01T17:42:57.399Z,3.40
2019-03-01T17:45:25.609Z,2.97
2019-03-01T17:47:55.322Z,2.90
2019-03-01T17:50:23.858Z,3.13
2019-03-01T17:52:51.946Z,3.33
2019-03-01T17:55:20.112Z,2.60
2019-03-01T17:57:50.172Z,2.73
2019-03-01T18:00:25.477Z,3.03
2019-03-01T18:02:54.607Z,2.20
2019-03-01T18:05:22.790Z,2.20
2019-03-01T18:07:50.960Z,3.07
2019-03-01T18:10:19.137Z,2.37
2019-03-01T18:12:47.260Z,2.57
2019-03-01T18:15:17.341Z,2.47
2019-03-01T18:17:47.255Z,2.80
2019-03-01T18:20:15.633Z,1.90
2019-03-01T18:22:44.388Z,2.33
2019-03-01T18:25:12.645Z,2.53
2019-03-01T18:27:40.817Z,2.20
2019-03-01T18:30:16.118Z,2.40
2019-03-01T18:32:45.149Z,2.60
2019-03-01T18:35:14.134Z,2.60
2019-03-01T18:37:42.681Z,2.57
2019-03-01T18:40:13.526Z,3.13
2019-03-01T18:42:41.481Z,2.40
2019-03-01T18:45:13.016Z,3.53
2019-03-01T18:47:41.149Z,4.77
2019-03-01T18:50:14.582Z,3.73
2019-03-01T18:52:42.710Z,3.50
2019-03-01T18:55:13.732Z,3.10
2019-03-01T18:57:41.140Z,2.20
2019-03-01T19:00:20.299Z,3.10
2019-03-01T19:02:48.749Z,2.53
2019-03-01T19:05:16.920Z,2.63
2019-03-01T19:07:45.573Z,1.97
2019-03-01T19:10:14.114Z,2.00
2019-03-01T19:12:44.948Z,2.60
2019-03-01T19:15:15.602Z,2.27
2019-03-01T19:17:44.503Z,2.23
2019-03-01T19:20:16.314Z,3.20
2019-03-01T19:22:44.755Z,2.27
2019-03-01T19:25:13.556Z,2.33
2019-03-01T19:27:41.699Z,2.07
2019-03-01T19:30:13.605Z,2.27
2019-03-01T19:32:42.446Z,2.57
2019-03-01T19:35:10.541Z,2.33
2019-03-01T19:37:38.856Z,2.20
2019-03-01T19:40:10.913Z,2.93
2019-03-01T19:42:48.141Z,2.43
2019-03-01T19:45:17.937Z,2.50
2019-03-01T19:47:46.150Z,2.17
2019-03-01T19:50:16.512Z,2.90
2019-03-01T19:52:46.953Z,2.40
2019-03-01T19:55:15.421Z,2.33
2019-03-01T19:57:43.594Z,2.20
2019-03-01T20:00:15.518Z,2.80
2019-03-01T20:02:43.838Z,1.70
2019-03-01T20:05:15.433Z,2.30
2019-03-01T20:07:43.828Z,2.07
2019-03-01T20:10:15.056Z,2.27
2019-03-01T20:12:44.149Z,2.57
2019-03-01T20:15:15.435Z,1.97
2019-03-01T20:17:44.562Z,3.13
2019-03-01T20:20:14.940Z,2.70
2019-03-01T20:22:43.159Z,1.90
2019-03-01T20:25:12.785Z,3.00
2019-03-01T20:27:42.516Z,2.73
2019-03-01T20:30:17.343Z,2.80
2019-03-01T20:32:47.527Z,2.47
2019-03-01T20:35:16.702Z,2.53
2019-03-01T20:37:44.930Z,2.83
2019-03-01T20:40:13.607Z,2.63
2019-03-01T20:42:41.733Z,2.43
2019-03-01T20:45:13.891Z,2.80
2019-03-01T20:47:42.016Z,2.83
2019-03-01T20:50:11.906Z,2.43
2019-03-01T20:52:40.245Z,2.87
2019-03-01T20:55:08.653Z,2.70
2019-03-01T20:57:38.074Z,3.97
2019-03-01T21:00:09.682Z,3.80
2019-03-01T21:02:37.771Z,3.30
2019-03-01T21:05:06.840Z,3.30
2019-03-01T21:07:34.965Z,3.00
2019-03-01T21:10:04.402Z,3.00
2019-03-01T21:12:33.485Z,3.00
2019-03-01T21:15:03.162Z,3.43
2019-03-01T21:17:31.324Z,3.17
2019-03-01T21:19:59.467Z,3.37
2019-03-01T21:22:27.570Z,3.57
2019-03-01T21:24:55.711Z,2.10
2019-03-01T21:27:25.907Z,2.27
2019-03-01T21:29:53.879Z,2.63
2019-03-01T21:32:21.980Z,2.10
2019-03-01T21:34:50.149Z,2.43
2019-03-01T21:37:18.244Z,2.30
2019-03-01T21:39:46.503Z,2.33
2019-03-01T21:42:16.958Z,2.57
2019-03-01T21:44:45.659Z,2.30
2019-03-01T21:47:15.052Z,2.90
2019-03-01T21:49:45.178Z,2.20
2019-03-01T21:52:13.243Z,2.10
2019-03-01T21:54:41.598Z,3.23
2019-03-01T21:57:09.708Z,2.37
2019-03-01T21:59:37.867Z,2.07
2019-03-01T22:02:06.352Z,2.27
2019-03-01T22:04:37.389Z,2.50
2019-03-01T22:07:04.705Z,2.83
2019-03-01T22:09:32.923Z,2.87
2019-03-01T22:12:01.059Z,2.30
2019-03-01T22:14:29.183Z,3.37
2019-03-01T22:16:57.269Z,2.87
2019-03-01T22:19:25.346Z,2.53
2019-03-01T22:21:54.642Z,2.60
2019-03-01T22:24:23.687Z,3.23
2019-03-01T22:26:53.525Z,4.10
2019-03-01T22:29:21.961Z,3.90
2019-03-01T22:31:50.074Z,4.03
2019-03-01T22:34:18.322Z,3.63
2019-03-01T22:36:49.517Z,4.37
2019-03-01T22:39:16.735Z,3.03
2019-03-01T22:41:45.733Z,3.40
2019-03-01T22:44:13.860Z,3.33
2019-03-01T22:46:41.989Z,3.13
2019-03-01T22:49:10.137Z,2.77
2019-03-01T22:51:38.330Z,2.50
2019-03-01T22:54:06.455Z,2.10
2019-03-01T22:56:34.633Z,2.07
2019-03-01T22:59:02.722Z,2.07
2019-03-01T23:01:40.138Z,2.70
2019-03-01T23:04:08.247Z,2.50
2019-03-01T23:06:37.014Z,1.93
2019-03-01T23:09:11.604Z,2.93
2019-03-01T23:11:40.141Z,2.40
2019-03-01T23:14:08.562Z,2.33
2019-03-01T23:16:36.678Z,2.73
2019-03-01T23:19:05.180Z,3.03
2019-03-01T23:21:36.007Z,2.87
2019-03-01T23:24:03.484Z,3.37
2019-03-01T23:26:31.651Z,4.33
2019-03-01T23:28:59.741Z,4.37
2019-03-01T23:31:27.974Z,4.00
2019-03-01T23:33:56.063Z,4.17
2019-03-01T23:36:28.349Z,3.23
2019-03-01T23:38:55.146Z,2.53
2019-03-01T23:41:23.571Z,2.57
2019-03-01T23:43:51.663Z,3.03
2019-03-01T23:46:20.822Z,2.50
2019-03-01T23:48:49.790Z,3.37
2019-03-01T23:51:18.356Z,2.47
2019-03-01T23:53:46.432Z,2.37
2019-03-01T23:56:14.528Z,2.37
2019-03-01T23:58:42.624Z,2.07
